sensor_id;sensor_type;location;lat;lon;timestamp;P1;durP1;ratioP1;P2;durP2;ratioP2
7475;SDS011;3779;49.216;8.650;2023-03-23T00:01:59;1.50;;;1.40;;
7475;SDS011;3779;49.216;8.650;2023-03-23T00:04:45;1.37;;;1.27;;
7475;SDS011;3779;49.216;8.650;2023-03-23T00:07:34;1.50;;;1.40;;
7475;SDS011;3779;49.216;8.650;2023-03-23T00:10:22;1.30;;;1.20;;
7475;SDS011;3779;49.216;8.650;2023-03-23T00:13:12;1.33;;;1.23;;
7475;SDS011;3779;49.216;8.650;2023-03-23T00:16:04;2.73;;;1.50;;
7475;SDS011;3779;49.216;8.650;2023-03-23T00:19:04;3.17;;;1.77;;
7475;SDS011;3779;49.216;8.650;2023-03-23T00:21:55;1.30;;;1.20;;
7475;SDS011;3779;49.216;8.650;2023-03-23T00:24:42;4.40;;;1.30;;
7475;SDS011;3779;49.216;8.650;2023-03-23T00:27:29;1.23;;;1.13;;
7475;SDS011;3779;49.216;8.650;2023-03-23T00:30:15;1.00;;;1.00;;
7475;SDS011;3779;49.216;8.650;2023-03-23T00:33:01;1.70;;;1.13;;
7475;SDS011;3779;49.216;8.650;2023-03-23T00:35:47;0.80;;;0.80;;
7475;SDS011;3779;49.216;8.650;2023-03-23T00:38:34;2.40;;;1.33;;
7475;SDS011;3779;49.216;8.650;2023-03-23T00:41:21;1.10;;;1.00;;
7475;SDS011;3779;49.216;8.650;2023-03-23T00:44:08;1.30;;;1.00;;
7475;SDS011;3779;49.216;8.650;2023-03-23T00:46:54;1.37;;;1.10;;
7475;SDS011;3779;49.216;8.650;2023-03-23T00:49:41;1.20;;;1.10;;
7475;SDS011;3779;49.216;8.650;2023-03-23T00:52:28;1.10;;;1.10;;
7475;SDS011;3779;49.216;8.650;2023-03-23T00:55:17;1.70;;;1.10;;
7475;SDS011;3779;49.216;8.650;2023-03-23T00:58:03;0.90;;;0.90;;
7475;SDS011;3779;49.216;8.650;2023-03-23T01:00:50;1.07;;;1.00;;
7475;SDS011;3779;49.216;8.650;2023-03-23T01:03:36;1.50;;;1.10;;
7475;SDS011;3779;49.216;8.650;2023-03-23T01:06:22;1.27;;;1.10;;
7475;SDS011;3779;49.216;8.650;2023-03-23T01:09:10;2.57;;;1.10;;
7475;SDS011;3779;49.216;8.650;2023-03-23T01:11:59;2.50;;;1.00;;
7475;SDS011;3779;49.216;8.650;2023-03-23T01:14:45;2.10;;;1.20;;
7475;SDS011;3779;49.216;8.650;2023-03-23T01:17:33;0.90;;;0.90;;
7475;SDS011;3779;49.216;8.650;2023-03-23T01:20:19;1.20;;;1.10;;
7475;SDS011;3779;49.216;8.650;2023-03-23T01:23:05;1.30;;;1.20;;
7475;SDS011;3779;49.216;8.650;2023-03-23T01:25:53;0.97;;;0.90;;
7475;SDS011;3779;49.216;8.650;2023-03-23T01:28:46;1.47;;;1.03;;
7475;SDS011;3779;49.216;8.650;2023-03-23T01:31:33;1.20;;;1.10;;
7475;SDS011;3779;49.216;8.650;2023-03-23T01:34:23;1.27;;;1.17;;
7475;SDS011;3779;49.216;8.650;2023-03-23T01:37:11;2.00;;;1.20;;
7475;SDS011;3779;49.216;8.650;2023-03-23T01:39:59;1.57;;;1.20;;
7475;SDS011;3779;49.216;8.650;2023-03-23T01:42:46;1.20;;;1.10;;
7475;SDS011;3779;49.216;8.650;2023-03-23T01:45:35;2.07;;;1.10;;
7475;SDS011;3779;49.216;8.650;2023-03-23T01:48:28;1.30;;;1.20;;
7475;SDS011;3779;49.216;8.650;2023-03-23T01:51:19;2.10;;;1.13;;
7475;SDS011;3779;49.216;8.650;2023-03-23T01:54:14;1.20;;;1.10;;
7475;SDS011;3779;49.216;8.650;2023-03-23T01:57:07;1.30;;;1.20;;
7475;SDS011;3779;49.216;8.650;2023-03-23T02:00:04;1.30;;;1.20;;
7475;SDS011;3779;49.216;8.650;2023-03-23T02:03:06;1.17;;;1.10;;
7475;SDS011;3779;49.216;8.650;2023-03-23T02:05:57;1.30;;;1.20;;
7475;SDS011;3779;49.216;8.650;2023-03-23T02:09:09;1.77;;;1.10;;
7475;SDS011;3779;49.216;8.650;2023-03-23T02:11:57;1.33;;;1.23;;
7475;SDS011;3779;49.216;8.650;2023-03-23T02:14:45;1.30;;;1.20;;
7475;SDS011;3779;49.216;8.650;2023-03-23T02:27:05;2.27;;;1.30;;
7475;SDS011;3779;49.216;8.650;2023-03-23T02:30:16;1.63;;;1.40;;
7475;SDS011;3779;49.216;8.650;2023-03-23T02:36:22;1.40;;;1.30;;
7475;SDS011;3779;49.216;8.650;2023-03-23T02:39:23;1.80;;;1.30;;
7475;SDS011;3779;49.216;8.650;2023-03-23T02:42:17;2.13;;;1.30;;
7475;SDS011;3779;49.216;8.650;2023-03-23T02:45:22;2.13;;;1.40;;
7475;SDS011;3779;49.216;8.650;2023-03-23T02:48:13;2.47;;;1.37;;
7475;SDS011;3779;49.216;8.650;2023-03-23T02:51:05;2.67;;;1.30;;
7475;SDS011;3779;49.216;8.650;2023-03-23T02:53:54;2.23;;;1.30;;
7475;SDS011;3779;49.216;8.650;2023-03-23T02:56:47;1.40;;;1.30;;
7475;SDS011;3779;49.216;8.650;2023-03-23T02:59:41;1.53;;;1.43;;
7475;SDS011;3779;49.216;8.650;2023-03-23T03:02:28;1.33;;;1.23;;
7475;SDS011;3779;49.216;8.650;2023-03-23T03:08:41;2.43;;;1.40;;
7475;SDS011;3779;49.216;8.650;2023-03-23T03:11:36;2.00;;;1.40;;
7475;SDS011;3779;49.216;8.650;2023-03-23T03:14:25;1.43;;;1.33;;
7475;SDS011;3779;49.216;8.650;2023-03-23T03:17:25;1.20;;;1.00;;
7475;SDS011;3779;49.216;8.650;2023-03-23T03:20:16;1.30;;;1.20;;
7475;SDS011;3779;49.216;8.650;2023-03-23T03:23:04;1.53;;;1.33;;
7475;SDS011;3779;49.216;8.650;2023-03-23T03:25:55;1.57;;;1.47;;
7475;SDS011;3779;49.216;8.650;2023-03-23T03:28:52;1.73;;;1.40;;
7475;SDS011;3779;49.216;8.650;2023-03-23T03:31:43;1.73;;;1.27;;
7475;SDS011;3779;49.216;8.650;2023-03-23T03:34:33;2.30;;;1.40;;
7475;SDS011;3779;49.216;8.650;2023-03-23T03:37:23;1.47;;;1.30;;
7475;SDS011;3779;49.216;8.650;2023-03-23T03:40:14;1.90;;;1.50;;
7475;SDS011;3779;49.216;8.650;2023-03-23T03:43:02;1.40;;;1.30;;
7475;SDS011;3779;49.216;8.650;2023-03-23T03:45:50;1.27;;;1.17;;
7475;SDS011;3779;49.216;8.650;2023-03-23T03:48:36;1.83;;;1.27;;
7475;SDS011;3779;49.216;8.650;2023-03-23T03:51:23;1.40;;;1.30;;
7475;SDS011;3779;49.216;8.650;2023-03-23T03:54:12;1.33;;;1.23;;
7475;SDS011;3779;49.216;8.650;2023-03-23T03:56:58;1.53;;;1.23;;
7475;SDS011;3779;49.216;8.650;2023-03-23T04:00:04;1.60;;;1.50;;
7475;SDS011;3779;49.216;8.650;2023-03-23T04:03:03;1.50;;;1.40;;
7475;SDS011;3779;49.216;8.650;2023-03-23T04:06:19;1.93;;;1.30;;
7475;SDS011;3779;49.216;8.650;2023-03-23T04:09:06;2.00;;;1.40;;
7475;SDS011;3779;49.216;8.650;2023-03-23T04:11:53;1.40;;;1.30;;
7475;SDS011;3779;49.216;8.650;2023-03-23T04:15:04;1.40;;;1.30;;
7475;SDS011;3779;49.216;8.650;2023-03-23T04:17:55;2.13;;;1.30;;
7475;SDS011;3779;49.216;8.650;2023-03-23T04:20:46;1.40;;;1.30;;
7475;SDS011;3779;49.216;8.650;2023-03-23T04:23:36;1.33;;;1.23;;
7475;SDS011;3779;49.216;8.650;2023-03-23T04:26:28;1.47;;;1.33;;
7475;SDS011;3779;49.216;8.650;2023-03-23T04:29:19;1.50;;;1.40;;
7475;SDS011;3779;49.216;8.650;2023-03-23T04:32:25;1.53;;;1.43;;
7475;SDS011;3779;49.216;8.650;2023-03-23T04:35:13;1.50;;;1.40;;
7475;SDS011;3779;49.216;8.650;2023-03-23T04:38:05;1.63;;;1.40;;
7475;SDS011;3779;49.216;8.650;2023-03-23T04:40:59;1.70;;;1.30;;
7475;SDS011;3779;49.216;8.650;2023-03-23T04:44:06;1.40;;;1.30;;
7475;SDS011;3779;49.216;8.650;2023-03-23T04:47:02;1.77;;;1.53;;
7475;SDS011;3779;49.216;8.650;2023-03-23T04:49:52;1.50;;;1.40;;
7475;SDS011;3779;49.216;8.650;2023-03-23T04:53:05;2.60;;;1.50;;
7475;SDS011;3779;49.216;8.650;2023-03-23T04:55:53;3.87;;;1.50;;
7475;SDS011;3779;49.216;8.650;2023-03-23T04:58:42;1.30;;;1.17;;
7475;SDS011;3779;49.216;8.650;2023-03-23T05:01:46;1.80;;;1.70;;
7475;SDS011;3779;49.216;8.650;2023-03-23T05:04:38;4.30;;;1.93;;
7475;SDS011;3779;49.216;8.650;2023-03-23T05:07:35;3.13;;;2.03;;
7475;SDS011;3779;49.216;8.650;2023-03-23T05:10:53;2.87;;;1.80;;
7475;SDS011;3779;49.216;8.650;2023-03-23T05:13:50;5.40;;;2.30;;
7475;SDS011;3779;49.216;8.650;2023-03-23T05:16:48;2.50;;;1.80;;
7475;SDS011;3779;49.216;8.650;2023-03-23T05:19:42;2.23;;;1.70;;
7475;SDS011;3779;49.216;8.650;2023-03-23T05:23:25;3.40;;;1.70;;
7475;SDS011;3779;49.216;8.650;2023-03-23T05:26:54;3.87;;;1.30;;
7475;SDS011;3779;49.216;8.650;2023-03-23T05:29:54;2.60;;;2.00;;
7475;SDS011;3779;49.216;8.650;2023-03-23T05:33:36;1.87;;;1.57;;
7475;SDS011;3779;49.216;8.650;2023-03-23T05:38:23;1.87;;;1.60;;
7475;SDS011;3779;49.216;8.650;2023-03-23T05:54:41;1.80;;;1.60;;
7475;SDS011;3779;49.216;8.650;2023-03-23T05:57:32;2.77;;;1.60;;
7475;SDS011;3779;49.216;8.650;2023-03-23T06:00:32;1.93;;;1.60;;
7475;SDS011;3779;49.216;8.650;2023-03-23T06:03:35;2.80;;;1.93;;
7475;SDS011;3779;49.216;8.650;2023-03-23T06:06:45;2.33;;;1.70;;
7475;SDS011;3779;49.216;8.650;2023-03-23T06:09:31;2.77;;;1.63;;
7475;SDS011;3779;49.216;8.650;2023-03-23T06:12:23;1.97;;;1.60;;
7475;SDS011;3779;49.216;8.650;2023-03-23T06:15:19;1.90;;;1.70;;
7475;SDS011;3779;49.216;8.650;2023-03-23T06:18:25;1.63;;;1.53;;
7475;SDS011;3779;49.216;8.650;2023-03-23T06:21:30;1.80;;;1.70;;
7475;SDS011;3779;49.216;8.650;2023-03-23T06:24:26;3.57;;;1.90;;
7475;SDS011;3779;49.216;8.650;2023-03-23T06:27:15;1.70;;;1.60;;
7475;SDS011;3779;49.216;8.650;2023-03-23T06:30:04;2.37;;;1.70;;
7475;SDS011;3779;49.216;8.650;2023-03-23T06:32:52;2.30;;;1.70;;
7475;SDS011;3779;49.216;8.650;2023-03-23T06:35:51;3.80;;;1.80;;
7475;SDS011;3779;49.216;8.650;2023-03-23T06:39:00;2.13;;;1.60;;
7475;SDS011;3779;49.216;8.650;2023-03-23T06:41:59;1.70;;;1.60;;
7475;SDS011;3779;49.216;8.650;2023-03-23T06:44:48;1.97;;;1.67;;
7475;SDS011;3779;49.216;8.650;2023-03-23T06:47:35;1.90;;;1.80;;
7475;SDS011;3779;49.216;8.650;2023-03-23T06:50:21;1.80;;;1.57;;
7475;SDS011;3779;49.216;8.650;2023-03-23T06:53:07;3.17;;;1.77;;
7475;SDS011;3779;49.216;8.650;2023-03-23T06:55:53;2.23;;;1.53;;
7475;SDS011;3779;49.216;8.650;2023-03-23T06:58:39;1.63;;;1.53;;
7475;SDS011;3779;49.216;8.650;2023-03-23T07:01:27;1.93;;;1.50;;
7475;SDS011;3779;49.216;8.650;2023-03-23T07:04:19;1.90;;;1.60;;
7475;SDS011;3779;49.216;8.650;2023-03-23T07:07:13;2.03;;;1.60;;
7475;SDS011;3779;49.216;8.650;2023-03-23T07:10:09;2.20;;;1.60;;
7475;SDS011;3779;49.216;8.650;2023-03-23T07:12:56;3.03;;;1.80;;
7475;SDS011;3779;49.216;8.650;2023-03-23T07:15:43;1.90;;;1.70;;
7475;SDS011;3779;49.216;8.650;2023-03-23T07:18:29;1.80;;;1.57;;
7475;SDS011;3779;49.216;8.650;2023-03-23T07:21:17;3.37;;;1.57;;
7475;SDS011;3779;49.216;8.650;2023-03-23T07:24:03;2.10;;;1.90;;
7475;SDS011;3779;49.216;8.650;2023-03-23T07:27:10;1.77;;;1.60;;
7475;SDS011;3779;49.216;8.650;2023-03-23T07:29:58;1.77;;;1.47;;
7475;SDS011;3779;49.216;8.650;2023-03-23T07:32:45;1.50;;;1.30;;
7475;SDS011;3779;49.216;8.650;2023-03-23T07:35:31;4.20;;;1.60;;
7475;SDS011;3779;49.216;8.650;2023-03-23T07:38:21;1.40;;;1.20;;
7475;SDS011;3779;49.216;8.650;2023-03-23T07:41:09;1.60;;;1.40;;
7475;SDS011;3779;49.216;8.650;2023-03-23T07:43:58;1.53;;;1.40;;
7475;SDS011;3779;49.216;8.650;2023-03-23T07:46:53;1.97;;;1.70;;
7475;SDS011;3779;49.216;8.650;2023-03-23T07:49:49;1.50;;;1.40;;
7475;SDS011;3779;49.216;8.650;2023-03-23T07:52:47;1.50;;;1.30;;
7475;SDS011;3779;49.216;8.650;2023-03-23T07:55:57;1.57;;;1.47;;
7475;SDS011;3779;49.216;8.650;2023-03-23T07:59:05;1.20;;;1.10;;
7475;SDS011;3779;49.216;8.650;2023-03-23T08:01:59;1.40;;;1.30;;
7475;SDS011;3779;49.216;8.650;2023-03-23T08:05:08;1.97;;;1.20;;
7475;SDS011;3779;49.216;8.650;2023-03-23T08:08:24;2.17;;;1.20;;
7475;SDS011;3779;49.216;8.650;2023-03-23T08:12:10;1.40;;;1.30;;
7475;SDS011;3779;49.216;8.650;2023-03-23T08:15:19;1.63;;;1.30;;
7475;SDS011;3779;49.216;8.650;2023-03-23T08:18:25;1.07;;;1.03;;
7475;SDS011;3779;49.216;8.650;2023-03-23T08:21:29;1.77;;;1.37;;
7475;SDS011;3779;49.216;8.650;2023-03-23T08:24:27;1.30;;;1.20;;
7475;SDS011;3779;49.216;8.650;2023-03-23T08:27:29;2.20;;;1.50;;
7475;SDS011;3779;49.216;8.650;2023-03-23T08:31:07;2.40;;;1.30;;
7475;SDS011;3779;49.216;8.650;2023-03-23T08:34:24;1.50;;;1.40;;
7475;SDS011;3779;49.216;8.650;2023-03-23T08:43:01;1.30;;;1.20;;
7475;SDS011;3779;49.216;8.650;2023-03-23T08:46:14;1.40;;;1.30;;
7475;SDS011;3779;49.216;8.650;2023-03-23T08:50:12;2.00;;;1.60;;
7475;SDS011;3779;49.216;8.650;2023-03-23T08:59:01;1.20;;;1.10;;
7475;SDS011;3779;49.216;8.650;2023-03-23T09:03:43;4.60;;;1.70;;
7475;SDS011;3779;49.216;8.650;2023-03-23T09:08:20;2.77;;;1.60;;
